createdAt,value
2023-02-15T00:01:56.684Z,110.50
2023-02-15T00:04:46.778Z,90.80
2023-02-15T00:07:16.785Z,81.17
2023-02-15T00:09:44.724Z,70.33
2023-02-15T00:12:12.735Z,72.13
2023-02-15T00:14:40.773Z,65.27
2023-02-15T00:17:10.244Z,66.20
2023-02-15T00:19:41.091Z,71.63
2023-02-15T00:22:09.152Z,92.43
2023-02-15T00:24:37.523Z,70.80
2023-02-15T00:27:05.601Z,83.40
2023-02-15T00:29:35.671Z,82.13
2023-02-15T00:32:03.647Z,75.83
2023-02-15T00:34:33.136Z,79.80
2023-02-15T00:37:01.052Z,72.97
2023-02-15T00:39:29.920Z,94.23
2023-02-15T00:41:57.896Z,121.87
2023-02-15T00:44:25.912Z,85.47
2023-02-15T00:46:53.875Z,82.30
2023-02-15T00:49:21.850Z,140.30
2023-02-15T00:51:51.107Z,103.47
2023-02-15T00:54:19.144Z,78.43
2023-02-15T00:56:47.131Z,106.80
2023-02-15T00:59:15.233Z,97.90
2023-02-15T01:01:43.196Z,101.37
2023-02-15T01:04:11.301Z,94.57
2023-02-15T01:06:39.342Z,103.50
2023-02-15T01:09:08.682Z,100.93
2023-02-15T01:11:36.803Z,93.33
2023-02-15T01:14:06.320Z,96.37
2023-02-15T01:16:37.440Z,100.50
2023-02-15T01:19:05.438Z,97.30
2023-02-15T01:21:35.223Z,98.80
2023-02-15T01:24:03.788Z,103.40
2023-02-15T01:26:33.197Z,103.70
2023-02-15T01:29:01.102Z,101.60
2023-02-15T01:31:32.274Z,107.60
2023-02-15T01:34:00.249Z,109.53
2023-02-15T01:36:28.408Z,108.70
2023-02-15T01:38:56.454Z,142.63
2023-02-15T01:41:27.992Z,260.77
2023-02-15T01:43:59.064Z,98.13
2023-02-15T01:46:33.510Z,104.13
2023-02-15T01:49:09.004Z,109.70
2023-02-15T01:51:41.350Z,245.00
2023-02-15T01:54:16.214Z,146.37
2023-02-15T01:56:44.440Z,124.30
2023-02-15T01:59:17.800Z,112.50
2023-02-15T02:01:46.196Z,105.67
2023-02-15T02:04:19.516Z,120.63
2023-02-15T02:06:50.122Z,102.80
2023-02-15T02:09:18.312Z,116.80
2023-02-15T02:11:50.116Z,117.63
2023-02-15T02:14:20.284Z,108.03
2023-02-15T02:16:54.804Z,108.57
2023-02-15T02:19:47.760Z,120.37
2023-02-15T02:23:09.895Z,111.30
2023-02-15T02:26:17.356Z,103.13
2023-02-15T02:29:21.922Z,121.73
2023-02-15T02:32:26.782Z,110.73
2023-02-15T02:35:01.880Z,110.20
2023-02-15T02:37:36.380Z,98.73
2023-02-15T02:40:13.869Z,102.50
2023-02-15T02:42:45.191Z,140.97
2023-02-15T02:45:18.513Z,118.60
2023-02-15T02:47:50.946Z,107.93
2023-02-15T02:50:24.918Z,96.93
2023-02-15T02:52:54.561Z,117.97
2023-02-15T02:55:26.471Z,117.30
2023-02-15T02:57:56.624Z,103.93
2023-02-15T03:00:27.679Z,113.77
2023-02-15T03:03:06.330Z,108.47
2023-02-15T03:05:38.433Z,125.37
2023-02-15T03:08:10.803Z,109.53
2023-02-15T03:10:41.838Z,112.80
2023-02-15T03:13:10.725Z,107.67
2023-02-15T03:15:59.839Z,103.27
2023-02-15T03:18:32.516Z,114.67
2023-02-15T03:21:04.787Z,111.60
2023-02-15T03:23:34.501Z,106.40
2023-02-15T03:26:05.130Z,103.10
2023-02-15T03:28:38.381Z,108.90
2023-02-15T03:31:08.895Z,110.90
2023-02-15T03:33:41.942Z,94.77
2023-02-15T03:36:20.140Z,110.13
2023-02-15T03:38:53.916Z,95.33
2023-02-15T03:41:26.104Z,89.63
2023-02-15T03:43:58.148Z,107.33
2023-02-15T03:46:30.495Z,93.73
2023-02-15T03:49:03.261Z,85.43
2023-02-15T03:51:36.391Z,85.60
2023-02-15T03:54:07.471Z,90.73
2023-02-15T03:56:37.154Z,92.93
2023-02-15T03:59:23.582Z,106.97
2023-02-15T04:02:09.703Z,96.67
2023-02-15T04:04:39.425Z,100.33
2023-02-15T04:07:10.747Z,83.70
2023-02-15T04:09:55.959Z,91.53
2023-02-15T04:12:24.350Z,105.63
2023-02-15T04:15:09.911Z,99.40
2023-02-15T04:17:38.633Z,97.67
2023-02-15T04:20:25.628Z,102.73
2023-02-15T04:23:12.598Z,103.77
2023-02-15T04:25:40.873Z,92.90
2023-02-15T04:28:09.380Z,113.50
2023-02-15T04:30:37.473Z,102.20
2023-02-15T04:33:06.696Z,115.43
2023-02-15T04:35:34.735Z,89.33
2023-02-15T04:38:04.116Z,101.77
2023-02-15T04:40:32.260Z,97.63
2023-02-15T04:43:00.278Z,103.10
2023-02-15T04:45:29.434Z,95.03
2023-02-15T04:47:57.641Z,91.77
2023-02-15T04:50:25.720Z,87.77
2023-02-15T04:52:53.752Z,86.67
2023-02-15T04:55:23.053Z,90.07
2023-02-15T04:57:51.089Z,91.60
2023-02-15T05:00:19.667Z,81.53
2023-02-15T05:02:47.730Z,87.83
2023-02-15T05:05:16.209Z,88.87
2023-02-15T05:07:44.245Z,84.23
2023-02-15T05:10:12.436Z,92.07
2023-02-15T05:12:41.801Z,110.97
2023-02-15T05:15:10.732Z,102.10
2023-02-15T05:17:38.886Z,100.23
2023-02-15T05:20:08.151Z,108.60
2023-02-15T05:22:36.223Z,109.27
2023-02-15T05:25:21.704Z,99.30
2023-02-15T05:28:08.657Z,84.73
2023-02-15T05:30:37.067Z,97.07
2023-02-15T05:33:07.613Z,99.63
2023-02-15T05:35:36.308Z,89.87
2023-02-15T05:38:04.312Z,109.87
2023-02-15T05:40:32.462Z,94.43
2023-02-15T05:43:01.862Z,122.17
2023-02-15T05:45:30.058Z,100.63
2023-02-15T05:47:59.053Z,72.07
2023-02-15T05:50:27.695Z,86.83
2023-02-15T05:52:55.633Z,91.00
2023-02-15T05:55:23.547Z,87.50
2023-02-15T05:57:51.619Z,94.80
2023-02-15T06:00:21.405Z,91.47
2023-02-15T06:02:49.500Z,79.80
2023-02-15T06:05:17.540Z,118.43
2023-02-15T06:07:46.598Z,88.13
2023-02-15T06:10:14.667Z,88.63
2023-02-15T06:12:42.696Z,94.20
2023-02-15T06:15:11.208Z,88.93
2023-02-15T06:17:42.497Z,90.47
2023-02-15T06:20:11.614Z,86.63
2023-02-15T06:22:39.606Z,105.23
2023-02-15T06:25:10.811Z,89.17
2023-02-15T06:27:39.277Z,101.07
2023-02-15T06:30:08.515Z,80.07
2023-02-15T06:32:36.776Z,85.93
2023-02-15T06:35:06.587Z,86.73
2023-02-15T06:37:34.525Z,80.07
2023-02-15T06:40:03.888Z,74.90
2023-02-15T06:42:32.602Z,82.80
2023-02-15T06:45:01.519Z,79.63
2023-02-15T06:47:29.861Z,80.23
2023-02-15T06:49:58.600Z,81.47
2023-02-15T06:52:29.309Z,80.17
2023-02-15T06:54:57.370Z,71.23
2023-02-15T06:57:25.411Z,72.57
2023-02-15T06:59:54.219Z,72.17
2023-02-15T07:02:22.181Z,68.00
2023-02-15T07:04:50.288Z,67.47
2023-02-15T07:07:18.407Z,68.13
2023-02-15T07:09:47.776Z,71.70
2023-02-15T07:12:33.397Z,62.27
2023-02-15T07:15:01.402Z,67.23
2023-02-15T07:17:38.095Z,59.80
2023-02-15T07:20:12.120Z,60.47
2023-02-15T07:22:40.149Z,58.97
2023-02-15T07:25:11.663Z,62.73
2023-02-15T07:27:40.398Z,57.50
2023-02-15T07:30:11.063Z,65.50
2023-02-15T07:32:59.418Z,56.30
2023-02-15T07:35:27.731Z,50.10
2023-02-15T07:37:56.485Z,51.97
2023-02-15T07:40:28.693Z,49.63
2023-02-15T07:43:00.353Z,60.20
2023-02-15T07:45:28.437Z,53.97
2023-02-15T07:47:56.504Z,60.80
2023-02-15T07:50:24.621Z,54.60
2023-02-15T07:52:52.778Z,49.90
2023-02-15T07:55:22.038Z,57.37
2023-02-15T07:57:52.716Z,47.83
2023-02-15T08:00:25.679Z,49.60
2023-02-15T08:03:10.631Z,49.40
2023-02-15T08:05:39.031Z,48.57
2023-02-15T08:08:07.184Z,49.67
2023-02-15T08:10:52.539Z,44.07
2023-02-15T08:13:21.847Z,40.70
2023-02-15T08:15:53.421Z,48.83
2023-02-15T08:18:21.567Z,42.90
2023-02-15T08:20:51.891Z,40.90
2023-02-15T08:23:20.362Z,48.57
2023-02-15T08:25:48.302Z,42.07
2023-02-15T08:28:16.278Z,41.17
2023-02-15T08:30:45.621Z,43.23
2023-02-15T08:33:13.703Z,42.67
2023-02-15T08:35:41.895Z,42.60
2023-02-15T08:38:09.864Z,44.43
2023-02-15T08:40:39.024Z,43.37
2023-02-15T08:43:08.144Z,44.30
2023-02-15T08:45:36.153Z,48.47
2023-02-15T08:48:05.974Z,40.60
2023-02-15T08:50:34.237Z,43.07
2023-02-15T08:53:02.154Z,39.00
2023-02-15T08:55:30.140Z,42.33
2023-02-15T08:57:59.056Z,47.47
2023-02-15T09:00:27.243Z,46.27
2023-02-15T09:02:56.409Z,43.63
2023-02-15T09:05:25.836Z,40.50
2023-02-15T09:07:53.849Z,43.73
2023-02-15T09:10:22.130Z,44.93
2023-02-15T09:12:51.149Z,44.87
2023-02-15T09:15:19.224Z,44.93
2023-02-15T09:17:47.207Z,38.33
2023-02-15T09:20:15.220Z,38.93
2023-02-15T09:22:44.691Z,41.87
2023-02-15T09:25:14.580Z,39.70
2023-02-15T09:27:43.200Z,37.03
2023-02-15T09:30:12.509Z,39.23
2023-02-15T09:32:40.545Z,35.80
2023-02-15T09:35:08.991Z,37.60
2023-02-15T09:37:37.049Z,37.33
2023-02-15T09:40:07.672Z,38.50
2023-02-15T09:43:01.926Z,39.33
2023-02-15T09:45:41.651Z,38.22
2023-02-15T09:48:42.736Z,40.70
2023-02-15T09:51:31.478Z,38.00
2023-02-15T09:54:12.345Z,36.25
2023-02-15T09:56:47.368Z,32.33
2023-02-15T09:59:26.440Z,34.63
2023-02-15T10:02:04.812Z,36.80
2023-02-15T10:04:48.876Z,38.45
2023-02-15T10:07:26.442Z,36.57
2023-02-15T10:10:09.199Z,31.60
2023-02-15T10:12:56.420Z,36.57
2023-02-15T10:15:45.539Z,35.53
2023-02-15T10:18:28.277Z,33.83
2023-02-15T10:21:04.867Z,38.80
2023-02-15T10:23:52.454Z,37.63
2023-02-15T10:26:22.228Z,37.97
2023-02-15T10:28:53.770Z,36.00
2023-02-15T10:31:27.348Z,38.20
2023-02-15T10:34:17.220Z,36.93
2023-02-15T10:37:02.547Z,36.53
2023-02-15T10:39:40.659Z,37.33
2023-02-15T10:42:17.071Z,39.00
2023-02-15T10:45:04.908Z,34.90
2023-02-15T10:47:53.644Z,39.57
2023-02-15T10:50:38.902Z,40.00
2023-02-15T10:53:43.725Z,40.03
2023-02-15T10:56:21.663Z,39.57
2023-02-15T10:59:23.743Z,37.27
2023-02-15T11:01:57.536Z,38.83
2023-02-15T11:04:47.743Z,38.47
2023-02-15T11:07:21.894Z,45.00
2023-02-15T11:09:54.416Z,34.43
2023-02-15T11:12:26.148Z,38.20
2023-02-15T11:15:00.739Z,37.60
2023-02-15T11:17:36.846Z,40.13
2023-02-15T11:20:18.012Z,40.60
2023-02-15T11:22:50.624Z,36.43
2023-02-15T11:25:21.274Z,38.03
2023-02-15T11:27:51.643Z,37.57
2023-02-15T11:30:25.126Z,37.73
2023-02-15T11:32:57.226Z,33.93
2023-02-15T11:35:31.210Z,31.83
2023-02-15T11:38:08.186Z,36.43
2023-02-15T11:40:37.949Z,37.10
2023-02-15T11:43:15.282Z,34.17
2023-02-15T11:45:45.144Z,35.43
2023-02-15T11:48:16.547Z,35.33
2023-02-15T11:50:46.336Z,36.23
2023-02-15T11:53:17.862Z,36.23
2023-02-15T11:55:47.347Z,31.63
2023-02-15T11:58:25.441Z,32.53
2023-02-15T12:00:58.527Z,30.43
2023-02-15T12:03:45.439Z,28.63
2023-02-15T12:06:20.956Z,30.53
2023-02-15T12:08:54.537Z,29.63
2023-02-15T12:11:30.172Z,27.83
2023-02-15T12:14:00.430Z,31.43
2023-02-15T12:16:31.105Z,30.17
2023-02-15T12:19:02.507Z,30.57
2023-02-15T12:21:33.391Z,30.00
2023-02-15T12:24:16.053Z,28.70
2023-02-15T12:26:44.284Z,36.20
2023-02-15T12:29:18.738Z,41.13
2023-02-15T12:31:49.903Z,36.33
2023-02-15T12:34:24.898Z,33.70
2023-02-15T12:36:58.993Z,35.13
2023-02-15T12:39:29.597Z,35.00
2023-02-15T12:42:07.665Z,39.70
2023-02-15T12:44:38.069Z,36.70
2023-02-15T12:47:08.238Z,36.87
2023-02-15T12:49:39.134Z,34.87
2023-02-15T12:52:24.456Z,33.17
2023-02-15T12:54:53.100Z,35.87
2023-02-15T12:57:27.643Z,34.63
2023-02-15T12:59:57.886Z,35.83
2023-02-15T13:02:33.498Z,32.60
2023-02-15T13:05:19.552Z,36.27
2023-02-15T13:07:50.671Z,36.70
2023-02-15T13:10:27.086Z,41.43
2023-02-15T13:12:55.769Z,37.17
2023-02-15T13:15:32.429Z,40.63
2023-02-15T13:18:01.598Z,36.60
2023-02-15T13:20:31.609Z,41.27
2023-02-15T13:23:05.295Z,39.37
2023-02-15T13:25:41.223Z,45.57
2023-02-15T13:28:15.957Z,41.20
2023-02-15T13:30:47.893Z,43.80
2023-02-15T13:33:27.172Z,40.07
2023-02-15T13:36:08.928Z,43.83
2023-02-15T13:38:53.727Z,43.13
2023-02-15T13:41:28.654Z,44.03
2023-02-15T13:44:08.272Z,46.03
2023-02-15T13:46:47.568Z,48.67
2023-02-15T13:49:26.377Z,51.33
2023-02-15T13:52:21.604Z,46.37
2023-02-15T13:55:08.719Z,42.30
2023-02-15T13:57:51.975Z,42.90
2023-02-15T14:00:25.007Z,41.83
2023-02-15T14:03:27.687Z,46.07
2023-02-15T14:06:22.625Z,44.30
2023-02-15T14:09:06.511Z,41.97
2023-02-15T14:11:46.507Z,42.37
2023-02-15T14:14:41.069Z,39.17
2023-02-15T14:17:17.204Z,39.23
2023-02-15T14:19:50.963Z,39.10
2023-02-15T14:22:32.809Z,36.93
2023-02-15T14:25:20.605Z,34.93
2023-02-15T14:27:57.646Z,37.00
2023-02-15T14:30:30.865Z,37.73
2023-02-15T14:33:04.901Z,34.43
2023-02-15T14:35:33.376Z,34.37
2023-02-15T14:38:09.712Z,34.73
2023-02-15T14:41:04.574Z,34.00
2023-02-15T14:43:43.476Z,35.40
2023-02-15T14:46:19.387Z,34.13
2023-02-15T14:48:50.299Z,32.60
2023-02-15T14:51:57.671Z,35.03
2023-02-15T14:55:00.540Z,33.30
2023-02-15T14:57:35.792Z,32.83
2023-02-15T15:00:40.244Z,38.80
2023-02-15T15:03:23.594Z,36.93
2023-02-15T15:05:54.916Z,38.40
2023-02-15T15:08:28.522Z,34.97
2023-02-15T15:10:56.743Z,36.73
2023-02-15T15:13:57.014Z,38.90
2023-02-15T15:16:54.576Z,37.47
2023-02-15T15:20:09.234Z,35.93
2023-02-15T15:22:38.620Z,36.27
2023-02-15T15:25:12.250Z,34.73
2023-02-15T15:27:51.547Z,32.10
2023-02-15T15:31:01.668Z,34.57
2023-02-15T15:33:55.004Z,39.27
2023-02-15T15:36:50.295Z,37.00
2023-02-15T15:39:35.800Z,36.90
2023-02-15T15:42:14.193Z,40.33
2023-02-15T15:45:21.310Z,38.90
2023-02-15T15:48:07.617Z,39.60
2023-02-15T15:50:41.010Z,40.50
2023-02-15T15:53:17.640Z,39.47
2023-02-15T15:55:49.454Z,38.13
2023-02-15T15:58:19.979Z,42.67
2023-02-15T16:00:51.326Z,37.60
2023-02-15T16:03:23.731Z,43.03
2023-02-15T16:05:56.296Z,41.40
2023-02-15T16:08:35.371Z,46.67
2023-02-15T16:11:12.150Z,41.30
2023-02-15T16:13:42.822Z,47.07
2023-02-15T16:16:13.475Z,45.97
2023-02-15T16:18:43.359Z,43.23
2023-02-15T16:21:20.502Z,50.00
2023-02-15T16:24:14.852Z,50.40
2023-02-15T16:27:03.977Z,46.03
2023-02-15T16:29:35.227Z,52.07
2023-02-15T16:32:06.709Z,48.60
2023-02-15T16:34:34.922Z,47.33
2023-02-15T16:37:16.114Z,42.70
2023-02-15T16:39:45.748Z,48.20
2023-02-15T16:42:16.945Z,50.40
2023-02-15T16:44:48.320Z,48.43
2023-02-15T16:47:21.600Z,46.37
2023-02-15T16:49:52.312Z,44.43
2023-02-15T16:52:25.058Z,43.57
2023-02-15T16:54:57.311Z,48.17
2023-02-15T16:57:29.499Z,45.50
2023-02-15T17:00:04.165Z,47.83
2023-02-15T17:02:54.998Z,47.53
2023-02-15T17:05:23.445Z,46.60
2023-02-15T17:07:54.663Z,52.50
2023-02-15T17:10:36.367Z,58.63
2023-02-15T17:13:05.526Z,69.80
2023-02-15T17:15:37.482Z,53.20
2023-02-15T17:18:10.997Z,51.83
2023-02-15T17:20:42.729Z,48.77
2023-02-15T17:23:28.646Z,49.70
2023-02-15T17:25:57.985Z,49.90
2023-02-15T17:28:28.104Z,49.57
2023-02-15T17:30:58.584Z,49.80
2023-02-15T17:33:30.091Z,50.20
2023-02-15T17:36:11.259Z,49.70
2023-02-15T17:38:40.725Z,43.80
2023-02-15T17:41:10.064Z,50.03
2023-02-15T17:43:38.243Z,53.13
2023-02-15T17:46:10.759Z,48.77
2023-02-15T17:48:41.349Z,58.53
2023-02-15T17:51:17.598Z,55.73
2023-02-15T17:54:06.579Z,51.93
2023-02-15T17:56:33.705Z,54.20
2023-02-15T17:59:01.728Z,49.83
2023-02-15T18:01:48.343Z,50.87
2023-02-15T18:04:34.418Z,51.60
2023-02-15T18:07:20.285Z,52.70
2023-02-15T18:10:05.840Z,48.80
2023-02-15T18:12:36.595Z,48.13
2023-02-15T18:15:05.573Z,51.33
2023-02-15T18:17:38.570Z,59.10
2023-02-15T18:20:20.444Z,58.00
2023-02-15T18:22:48.791Z,53.43
2023-02-15T18:25:18.629Z,49.80
2023-02-15T18:27:47.016Z,56.47
2023-02-15T18:30:17.127Z,56.10
2023-02-15T18:32:48.709Z,55.70
2023-02-15T18:35:18.612Z,57.27
2023-02-15T18:37:47.589Z,58.07
2023-02-15T18:40:17.589Z,54.70
2023-02-15T18:42:47.936Z,62.00
2023-02-15T18:45:19.799Z,58.97
2023-02-15T18:47:50.251Z,55.37
2023-02-15T18:50:20.800Z,58.57
2023-02-15T18:52:51.670Z,56.13
2023-02-15T18:55:22.328Z,60.67
2023-02-15T18:57:52.301Z,58.73
2023-02-15T19:00:28.406Z,67.17
2023-02-15T19:03:02.041Z,66.50
2023-02-15T19:05:32.017Z,74.20
2023-02-15T19:08:02.108Z,75.40
2023-02-15T19:10:32.329Z,84.73
2023-02-15T19:13:00.332Z,67.00
2023-02-15T19:15:31.235Z,68.07
2023-02-15T19:18:00.661Z,75.20
2023-02-15T19:20:32.358Z,77.77
2023-02-15T19:23:02.804Z,75.70
2023-02-15T19:25:32.944Z,75.93
2023-02-15T19:28:01.747Z,70.60
2023-02-15T19:30:31.846Z,77.03
2023-02-15T19:33:02.220Z,74.13
2023-02-15T19:35:33.552Z,71.40
2023-02-15T19:38:03.650Z,70.40
2023-02-15T19:40:34.145Z,81.03
2023-02-15T19:43:02.929Z,78.13
2023-02-15T19:45:32.797Z,83.87
2023-02-15T19:48:03.460Z,73.30
2023-02-15T19:50:34.210Z,75.50
2023-02-15T19:53:03.872Z,83.00
2023-02-15T19:55:34.201Z,81.03
2023-02-15T19:58:03.493Z,80.87
2023-02-15T20:00:33.200Z,79.30
2023-02-15T20:03:03.337Z,79.50
2023-02-15T20:05:38.303Z,76.83
2023-02-15T20:08:08.429Z,76.80
2023-02-15T20:10:36.841Z,82.90
2023-02-15T20:13:04.879Z,80.70
2023-02-15T20:15:35.072Z,76.50
2023-02-15T20:18:06.869Z,77.73
2023-02-15T20:20:41.431Z,83.17
2023-02-15T20:23:20.139Z,80.53
2023-02-15T20:25:48.731Z,77.60
2023-02-15T20:28:19.767Z,84.03
2023-02-15T20:30:48.746Z,82.90
2023-02-15T20:33:18.961Z,79.77
2023-02-15T20:35:46.984Z,84.97
2023-02-15T20:38:20.388Z,88.10
2023-02-15T20:41:06.385Z,78.27
2023-02-15T20:43:35.260Z,79.87
2023-02-15T20:46:04.218Z,86.03
2023-02-15T20:48:33.872Z,87.53
2023-02-15T20:51:02.671Z,84.20
2023-02-15T20:53:31.281Z,79.90
2023-02-15T20:55:59.279Z,81.53
2023-02-15T20:58:28.779Z,82.17
2023-02-15T21:00:59.371Z,81.90
2023-02-15T21:03:31.533Z,86.93
2023-02-15T21:06:01.718Z,80.07
2023-02-15T21:08:29.803Z,85.80
2023-02-15T21:10:57.950Z,93.93
2023-02-15T21:13:42.210Z,112.53
2023-02-15T21:16:10.930Z,91.13
2023-02-15T21:18:41.978Z,81.47
2023-02-15T21:21:24.555Z,99.47
2023-02-15T21:23:54.288Z,92.27
2023-02-15T21:26:24.244Z,82.37
2023-02-15T21:28:52.548Z,81.57
2023-02-15T21:31:22.598Z,83.43
2023-02-15T21:33:50.732Z,80.50
2023-02-15T21:36:21.847Z,85.07
2023-02-15T21:38:50.862Z,93.87
2023-02-15T21:41:37.580Z,86.47
2023-02-15T21:44:34.272Z,102.03
2023-02-15T21:47:19.973Z,93.23
2023-02-15T21:49:48.011Z,90.17
2023-02-15T21:52:19.332Z,93.53
2023-02-15T21:54:47.358Z,93.03
2023-02-15T21:57:16.931Z,111.90
2023-02-15T21:59:46.647Z,94.67
2023-02-15T22:02:32.358Z,101.00
2023-02-15T22:05:00.669Z,95.80
2023-02-15T22:07:30.174Z,90.80
2023-02-15T22:09:58.171Z,94.70
2023-02-15T22:12:26.150Z,94.93
2023-02-15T22:14:54.987Z,88.23
2023-02-15T22:17:24.964Z,78.87
2023-02-15T22:19:53.446Z,93.10
2023-02-15T22:22:21.504Z,76.77
2023-02-15T22:24:51.133Z,84.40
2023-02-15T22:27:21.674Z,90.57
2023-02-15T22:29:50.055Z,84.67
2023-02-15T22:32:19.704Z,92.30
2023-02-15T22:34:47.918Z,95.77
2023-02-15T22:37:16.325Z,102.70
2023-02-15T22:39:44.358Z,102.90
2023-02-15T22:42:24.547Z,89.37
2023-02-15T22:44:53.548Z,92.03
2023-02-15T22:47:23.966Z,94.93
2023-02-15T22:49:52.239Z,88.73
2023-02-15T22:52:20.342Z,90.87
2023-02-15T22:54:48.398Z,115.77
2023-02-15T22:57:20.907Z,89.57
2023-02-15T22:59:49.224Z,90.13
2023-02-15T23:02:17.515Z,127.93
2023-02-15T23:04:46.530Z,105.73
2023-02-15T23:07:16.082Z,87.70
2023-02-15T23:09:44.397Z,98.10
2023-02-15T23:12:25.972Z,98.13
2023-02-15T23:14:54.766Z,102.47
2023-02-15T23:17:22.807Z,81.37
2023-02-15T23:19:50.808Z,86.80
2023-02-15T23:22:20.688Z,100.37
2023-02-15T23:24:53.613Z,88.43
2023-02-15T23:27:41.267Z,87.93
2023-02-15T23:30:15.147Z,85.40
2023-02-15T23:32:43.232Z,68.13
2023-02-15T23:35:15.560Z,99.53
2023-02-15T23:37:49.421Z,117.07
2023-02-15T23:40:36.953Z,83.57
2023-02-15T23:43:07.212Z,108.17
2023-02-15T23:45:39.082Z,88.43
2023-02-15T23:48:31.932Z,89.23
2023-02-15T23:51:00.748Z,77.33
2023-02-15T23:53:28.858Z,104.30
2023-02-15T23:55:57.095Z,101.70
2023-02-15T23:58:34.414Z,108.53
